Time;durP1;ratioP1;P1;durP2;ratioP2;P2;SDS_P1;SDS_P2;PMS_P1;PMS_P2;Temp;Humidity;BMP_temperature;BMP_pressure;BME280_temperature;BME280_humidity;BME280_pressure;Samples;Min_cycle;Max_cycle;Signal;HPM_P1;HPM_P2
2023/03/14 00:00:56;;;;;;;;;;;13.70;99.90;;;;;;7340967;19;109199;-78
2023/03/14 00:03:24;;;;;;;;;;;13.70;99.90;;;;;;7338510;19;109145;-78
2023/03/14 00:05:50;;;;;;;;;;;13.60;99.90;;;;;;7339808;19;108511;-78
2023/03/14 00:08:17;;;;;;;;;;;13.60;99.90;;;;;;7337063;19;109144;-78
2023/03/14 00:10:44;;;;;;;;;;;13.60;99.90;;;;;;7338535;19;109150;-78
2023/03/14 00:13:12;;;;;;;;;;;13.60;99.90;;;;;;7338789;19;108503;-78
2023/03/14 00:15:38;;;;;;;;;;;13.60;99.90;;;;;;7339064;19;109710;-78
2023/03/14 00:18:05;;;;;;;;;;;13.60;99.90;;;;;;7339856;19;108808;-78
2023/03/14 00:20:32;;;;;;;;;;;13.50;99.90;;;;;;7340837;19;109398;-78
2023/03/14 00:22:59;;;;;;;;;;;13.50;99.90;;;;;;7335625;19;109322;-78
2023/03/14 00:25:26;;;;;;;;;;;13.40;99.90;;;;;;7340192;19;109977;-79
2023/03/14 00:27:53;;;;;;;;;;;13.40;99.90;;;;;;7334108;19;109439;-78
2023/03/14 00:30:21;;;;;;;;;;;13.40;99.90;;;;;;7331213;19;109940;-80
2023/03/14 00:32:48;;;;;;;;;;;13.30;99.90;;;;;;7336555;19;108528;-78
2023/03/14 00:35:15;;;;;;;;;;;13.40;99.90;;;;;;7337593;19;109031;-78
2023/03/14 00:37:42;;;;;;;;;;;13.30;99.90;;;;;;7342252;19;109274;-78
2023/03/14 00:40:09;;;;;;;;;;;13.40;99.90;;;;;;7339507;19;108284;-78
2023/03/14 00:42:36;;;;;;;;;;;13.30;99.90;;;;;;7336921;19;110298;-79
2023/03/14 00:45:03;;;;;;;;;;;13.30;99.90;;;;;;7339588;19;108428;-78
2023/03/14 00:47:30;;;;;;;;;;;13.30;99.90;;;;;;7335293;19;109129;-78
2023/03/14 00:49:57;;;;;;;;;;;13.30;99.90;;;;;;7337613;19;109560;-78
2023/03/14 00:52:25;;;;;;;;;;;13.30;99.90;;;;;;7337166;19;108425;-78
2023/03/14 00:54:52;;;;;;;;;;;13.20;99.90;;;;;;7333047;19;108756;-79
2023/03/14 00:57:19;;;;;;;;;;;13.20;99.90;;;;;;7337254;19;109484;-78
2023/03/14 00:59:46;;;;;;;;;;;13.10;99.90;;;;;;7341528;19;108787;-79
2023/03/14 01:02:13;;;;;;;;;;;13.20;99.90;;;;;;7337132;19;109292;-78
2023/03/14 01:04:42;;;;;;;;;;;13.20;99.90;;;;;;7334607;19;109447;-78
2023/03/14 01:07:09;;;;;;;;;;;13.20;99.90;;;;;;7336608;19;109179;-78
2023/03/14 01:09:36;;;;;;;;;;;13.10;99.90;;;;;;7335724;19;109104;-78
2023/03/14 01:12:03;;;;;;;;;;;13.10;99.90;;;;;;7336008;19;108870;-78
2023/03/14 01:14:30;;;;;;;;;;;13.20;99.90;;;;;;7334704;19;109101;-78
2023/03/14 01:17:00;;;;;;;;;;;13.10;99.90;;;;;;7340110;19;108878;-78
2023/03/14 01:19:28;;;;;;;;;;;13.10;99.90;;;;;;7339282;19;108915;-79
2023/03/14 01:21:55;;;;;;;;;;;13.10;99.90;;;;;;7336359;19;110404;-79
2023/03/14 01:24:22;;;;;;;;;;;13.20;99.90;;;;;;7335156;19;109995;-79
2023/03/14 01:26:49;;;;;;;;;;;13.20;99.90;;;;;;7334676;19;108671;-78
2023/03/14 01:29:16;;;;;;;;;;;13.20;99.90;;;;;;7334332;19;109152;-78
2023/03/14 01:31:43;;;;;;;;;;;13.10;99.90;;;;;;7338064;19;108825;-77
2023/03/14 01:34:10;;;;;;;;;;;13.10;99.90;;;;;;7332750;19;109286;-78
2023/03/14 01:36:37;;;;;;;;;;;13.10;99.90;;;;;;7336373;19;112364;-77
2023/03/14 01:39:05;;;;;;;;;;;13.10;99.90;;;;;;7335585;19;109629;-77
2023/03/14 01:41:32;;;;;;;;;;;13.10;99.90;;;;;;7341556;19;108645;-78
2023/03/14 01:43:59;;;;;;;;;;;13.10;99.90;;;;;;7336536;19;108554;-78
2023/03/14 01:52:03;;;;;;;;;;;13.00;99.90;;;;;;7339242;19;108854;-77
2023/03/14 02:08:21;;;;;;;;;;;13.00;99.90;;;;;;7333203;19;110462;-79
2023/03/14 02:10:49;;;;;;;;;;;13.00;99.90;;;;;;7332794;19;110212;-80
2023/03/14 02:13:18;;;;;;;;;;;13.00;99.90;;;;;;7337407;19;108782;-78
2023/03/14 02:15:45;;;;;;;;;;;13.00;99.90;;;;;;7334239;19;111116;-79
2023/03/14 02:18:12;;;;;;;;;;;13.00;99.90;;;;;;7336727;19;109381;-78
2023/03/14 02:21:15;;;;;;;;;;;13.00;99.90;;;;;;7333977;19;108412;-78
2023/03/14 02:23:57;;;;;;;;;;;13.00;99.90;;;;;;7332319;19;108962;-78
2023/03/14 02:26:50;;;;;;;;;;;13.00;99.90;;;;;;7337288;19;109586;-78
2023/03/14 02:29:17;;;;;;;;;;;12.90;99.90;;;;;;7343419;19;110142;-78
2023/03/14 02:31:44;;;;;;;;;;;13.00;99.90;;;;;;7334620;19;109406;-78
2023/03/14 02:34:12;;;;;;;;;;;12.90;99.90;;;;;;7333022;19;109092;-78
2023/03/14 02:36:39;;;;;;;;;;;12.90;99.90;;;;;;7333956;19;108680;-78
2023/03/14 02:39:15;;;;;;;;;;;12.90;99.90;;;;;;7339186;19;110341;-78
2023/03/14 02:41:44;;;;;;;;;;;12.90;99.90;;;;;;7336617;19;111031;-78
2023/03/14 02:44:12;;;;;;;;;;;12.80;99.90;;;;;;7338370;19;109667;-78
2023/03/14 02:46:38;;;;;;;;;;;12.80;99.90;;;;;;7336654;19;109653;-78
2023/03/14 02:49:10;;;;;;;;;;;12.90;99.90;;;;;;7337070;19;108583;-78
2023/03/14 02:51:37;;;;;;;;;;;12.80;99.90;;;;;;7341140;19;114947;-78
2023/03/14 02:54:04;;;;;;;;;;;12.80;99.90;;;;;;7337077;19;109457;-78
2023/03/14 02:56:31;;;;;;;;;;;12.80;99.90;;;;;;7334529;19;108468;-78
2023/03/14 02:58:58;;;;;;;;;;;12.80;99.90;;;;;;7339555;19;110611;-78
2023/03/14 03:01:25;;;;;;;;;;;12.80;99.90;;;;;;7340336;19;108590;-78
2023/03/14 03:03:52;;;;;;;;;;;12.80;99.90;;;;;;7343191;19;109073;-78
2023/03/14 03:06:20;;;;;;;;;;;12.80;99.90;;;;;;7336546;19;110856;-78
2023/03/14 03:08:47;;;;;;;;;;;12.80;99.90;;;;;;7339439;19;110510;-78
2023/03/14 03:11:14;;;;;;;;;;;12.70;99.90;;;;;;7340148;19;108506;-78
2023/03/14 03:13:41;;;;;;;;;;;12.70;99.90;;;;;;7343941;19;108626;-78
2023/03/14 03:16:08;;;;;;;;;;;12.60;99.90;;;;;;7341963;19;108981;-78
2023/03/14 03:18:35;;;;;;;;;;;12.70;99.90;;;;;;7338585;19;110244;-78
2023/03/14 03:21:03;;;;;;;;;;;12.70;99.90;;;;;;7342200;19;108590;-78
2023/03/14 03:23:30;;;;;;;;;;;12.70;99.90;;;;;;7338744;19;109001;-78
2023/03/14 03:25:57;;;;;;;;;;;12.60;99.90;;;;;;7342076;19;109453;-78
2023/03/14 03:28:24;;;;;;;;;;;12.60;99.90;;;;;;7338603;19;108518;-78
2023/03/14 03:30:51;;;;;;;;;;;12.50;99.90;;;;;;7339574;19;108274;-78
2023/03/14 03:33:18;;;;;;;;;;;12.50;99.90;;;;;;7344910;19;109385;-78
2023/03/14 03:35:46;;;;;;;;;;;12.50;99.90;;;;;;7336257;19;108827;-78
2023/03/14 03:38:14;;;;;;;;;;;12.50;99.90;;;;;;7337934;19;109262;-78
2023/03/14 03:40:41;;;;;;;;;;;12.40;99.90;;;;;;7339466;19;108701;-78
2023/03/14 03:43:08;;;;;;;;;;;12.40;99.90;;;;;;7339692;19;109345;-79
2023/03/14 03:45:35;;;;;;;;;;;12.40;99.90;;;;;;7338460;19;108816;-79
2023/03/14 03:48:02;;;;;;;;;;;12.40;99.90;;;;;;7336947;19;108772;-79
2023/03/14 03:50:29;;;;;;;;;;;12.40;99.90;;;;;;7334849;19;109754;-79
2023/03/14 03:52:56;;;;;;;;;;;12.40;99.90;;;;;;7331068;19;111567;-79
2023/03/14 03:55:23;;;;;;;;;;;12.40;99.90;;;;;;7341120;19;108446;-79
2023/03/14 03:57:50;;;;;;;;;;;12.30;99.90;;;;;;7336563;19;109424;-78
2023/03/14 04:00:17;;;;;;;;;;;12.30;99.90;;;;;;7332417;19;108623;-79
2023/03/14 04:02:44;;;;;;;;;;;12.30;99.90;;;;;;7333820;19;108806;-79
2023/03/14 04:05:11;;;;;;;;;;;12.30;99.90;;;;;;7336424;19;109729;-79
2023/03/14 04:07:38;;;;;;;;;;;12.30;99.90;;;;;;7336675;19;109454;-79
2023/03/14 04:10:05;;;;;;;;;;;12.30;99.90;;;;;;7340183;19;108603;-79
2023/03/14 04:12:32;;;;;;;;;;;12.30;99.90;;;;;;7334991;19;108425;-79
2023/03/14 04:14:59;;;;;;;;;;;12.30;99.90;;;;;;7340753;19;108204;-78
2023/03/14 04:17:26;;;;;;;;;;;12.30;99.90;;;;;;7343370;19;108231;-79
2023/03/14 04:19:53;;;;;;;;;;;12.20;99.90;;;;;;7336683;19;108483;-78
2023/03/14 04:22:20;;;;;;;;;;;12.30;99.90;;;;;;7336606;19;109051;-78
2023/03/14 04:24:47;;;;;;;;;;;12.30;99.90;;;;;;7337324;19;108921;-78
2023/03/14 04:27:14;;;;;;;;;;;12.30;99.90;;;;;;7335956;19;108977;-78
2023/03/14 04:29:42;;;;;;;;;;;12.30;99.90;;;;;;7335140;19;108240;-78
2023/03/14 04:32:10;;;;;;;;;;;12.30;99.90;;;;;;7336503;19;109836;-78
2023/03/14 04:34:37;;;;;;;;;;;12.30;99.90;;;;;;7334849;19;110706;-78
2023/03/14 04:37:04;;;;;;;;;;;12.30;99.90;;;;;;7337562;19;108903;-78
2023/03/14 04:39:31;;;;;;;;;;;12.30;99.90;;;;;;7342927;19;110071;-78
2023/03/14 04:41:58;;;;;;;;;;;12.30;99.90;;;;;;7338307;19;109366;-78
2023/03/14 04:44:25;;;;;;;;;;;12.20;99.90;;;;;;7339779;19;109991;-78
2023/03/14 04:46:52;;;;;;;;;;;12.20;99.90;;;;;;7339694;19;108348;-78
2023/03/14 04:49:19;;;;;;;;;;;12.20;99.90;;;;;;7343110;19;109498;-78
2023/03/14 04:51:46;;;;;;;;;;;12.20;99.90;;;;;;7342501;19;110719;-78
2023/03/14 04:54:13;;;;;;;;;;;12.30;99.90;;;;;;7342936;19;109352;-78
2023/03/14 04:56:40;;;;;;;;;;;12.30;99.90;;;;;;7344316;19;109461;-78
2023/03/14 04:59:08;;;;;;;;;;;12.20;99.90;;;;;;7342867;19;112119;-78
2023/03/14 05:01:35;;;;;;;;;;;12.30;99.90;;;;;;7347817;19;108681;-78
2023/03/14 05:04:02;;;;;;;;;;;12.30;99.90;;;;;;7342632;19;109123;-78
2023/03/14 05:06:29;;;;;;;;;;;12.20;99.90;;;;;;7343085;19;109347;-78
2023/03/14 05:08:56;;;;;;;;;;;12.20;99.90;;;;;;7343368;19;109747;-78
2023/03/14 05:11:23;;;;;;;;;;;12.20;99.90;;;;;;7343571;19;110364;-78
2023/03/14 05:13:50;;;;;;;;;;;12.20;99.90;;;;;;7340391;19;110139;-78
2023/03/14 05:16:17;;;;;;;;;;;12.30;99.90;;;;;;7339915;19;109494;-79
2023/03/14 05:18:44;;;;;;;;;;;12.20;99.90;;;;;;7336832;19;108810;-78
2023/03/14 05:21:11;;;;;;;;;;;12.20;99.90;;;;;;7336710;19;108666;-78
2023/03/14 05:23:38;;;;;;;;;;;12.20;99.90;;;;;;7340115;19;108526;-78
2023/03/14 05:26:05;;;;;;;;;;;12.20;99.90;;;;;;7337229;19;108605;-78
2023/03/14 05:28:32;;;;;;;;;;;12.20;99.90;;;;;;7338467;19;110491;-78
2023/03/14 05:30:59;;;;;;;;;;;12.20;99.90;;;;;;7336265;19;110458;-78
2023/03/14 05:33:26;;;;;;;;;;;12.20;99.90;;;;;;7335288;19;109720;-78
2023/03/14 05:35:53;;;;;;;;;;;12.20;99.90;;;;;;7337171;19;110475;-77
2023/03/14 05:38:21;;;;;;;;;;;12.10;99.90;;;;;;7335544;19;109177;-78
2023/03/14 05:40:48;;;;;;;;;;;12.10;99.90;;;;;;7333042;19;109017;-78
2023/03/14 05:43:16;;;;;;;;;;;12.20;99.90;;;;;;7341143;19;108780;-78
2023/03/14 05:45:43;;;;;;;;;;;12.20;99.90;;;;;;7335277;19;108615;-78
2023/03/14 05:48:10;;;;;;;;;;;12.20;99.90;;;;;;7336254;19;109077;-78
2023/03/14 05:50:38;;;;;;;;;;;12.20;99.90;;;;;;7332397;19;108844;-78
2023/03/14 05:53:05;;;;;;;;;;;12.20;99.90;;;;;;7336642;19;108967;-78
2023/03/14 05:55:32;;;;;;;;;;;12.20;99.90;;;;;;7333488;19;110548;-78
2023/03/14 05:57:59;;;;;;;;;;;12.20;99.90;;;;;;7333025;19;109971;-79
2023/03/14 06:00:26;;;;;;;;;;;12.20;99.90;;;;;;7331919;19;109516;-78
2023/03/14 06:02:53;;;;;;;;;;;12.20;99.90;;;;;;7333699;19;108606;-77
2023/03/14 06:05:20;;;;;;;;;;;12.20;99.90;;;;;;7339436;19;109130;-78
2023/03/14 06:07:47;;;;;;;;;;;12.20;99.90;;;;;;7335579;19;109516;-78
2023/03/14 06:10:14;;;;;;;;;;;12.20;99.90;;;;;;7330074;19;109162;-78
2023/03/14 06:12:41;;;;;;;;;;;12.30;99.90;;;;;;7336615;19;109641;-78
2023/03/14 06:15:08;;;;;;;;;;;12.20;99.90;;;;;;7333177;19;108498;-78
2023/03/14 06:17:35;;;;;;;;;;;12.30;99.90;;;;;;7335876;19;109606;-78
2023/03/14 06:20:04;;;;;;;;;;;12.30;99.90;;;;;;7332073;19;109079;-78
2023/03/14 06:22:31;;;;;;;;;;;12.30;99.90;;;;;;7333940;19;108820;-78
2023/03/14 06:24:58;;;;;;;;;;;12.30;99.90;;;;;;7337339;19;110218;-78
2023/03/14 06:27:25;;;;;;;;;;;12.30;99.90;;;;;;7340453;19;110591;-78
2023/03/14 06:29:52;;;;;;;;;;;12.40;99.90;;;;;;7334605;19;112855;-78
2023/03/14 06:32:20;;;;;;;;;;;12.30;99.90;;;;;;7336519;19;108820;-78
2023/03/14 06:34:47;;;;;;;;;;;12.40;99.90;;;;;;7338363;19;109645;-79
2023/03/14 06:37:14;;;;;;;;;;;12.40;99.90;;;;;;7335589;19;109343;-77
2023/03/14 06:39:41;;;;;;;;;;;12.40;99.90;;;;;;7336446;19;110178;-78
2023/03/14 06:42:08;;;;;;;;;;;12.40;99.90;;;;;;7335753;19;109928;-78
2023/03/14 06:44:35;;;;;;;;;;;12.40;99.90;;;;;;7334616;19;109428;-77
2023/03/14 06:47:02;;;;;;;;;;;12.40;99.90;;;;;;7334636;19;112238;-77
2023/03/14 06:49:29;;;;;;;;;;;12.30;99.90;;;;;;7336132;19;110498;-77
2023/03/14 06:51:56;;;;;;;;;;;12.30;99.90;;;;;;7332388;19;109881;-78
2023/03/14 06:54:23;;;;;;;;;;;12.30;99.90;;;;;;7326163;19;109637;-72
2023/03/14 06:56:50;;;;;;;;;;;12.20;99.90;;;;;;7322322;19;110169;-74
2023/03/14 06:59:17;;;;;;;;;;;12.20;99.90;;;;;;7335900;19;111364;-77
2023/03/14 07:01:44;;;;;;;;;;;12.20;99.90;;;;;;7333079;19;109487;-78
2023/03/14 07:04:11;;;;;;;;;;;12.10;99.90;;;;;;7331879;19;110289;-76
2023/03/14 07:06:39;;;;;;;;;;;12.10;99.90;;;;;;7334525;19;110982;-76
2023/03/14 07:09:06;;;;;;;;;;;11.80;99.90;;;;;;7336442;19;109068;-73
2023/03/14 07:11:34;;;;;;;;;;;11.60;99.90;;;;;;7344695;19;111560;-72
2023/03/14 07:14:01;;;;;;;;;;;11.40;99.90;;;;;;7342078;19;109021;-73
2023/03/14 07:16:31;;;;;;;;;;;11.30;99.90;;;;;;7337763;19;110177;-74
2023/03/14 07:18:58;;;;;;;;;;;11.20;99.90;;;;;;7339208;19;108470;-73
2023/03/14 07:21:25;;;;;;;;;;;11.10;99.90;;;;;;7339262;19;111058;-73
2023/03/14 07:23:52;;;;;;;;;;;11.00;99.90;;;;;;7341438;19;109245;-72
2023/03/14 07:26:19;;;;;;;;;;;10.90;99.90;;;;;;7341963;19;108496;-72
2023/03/14 07:28:46;;;;;;;;;;;10.90;99.90;;;;;;7341053;19;109447;-73
2023/03/14 07:31:13;;;;;;;;;;;10.90;99.90;;;;;;7339810;19;109190;-72
2023/03/14 07:33:40;;;;;;;;;;;10.70;99.90;;;;;;7344691;19;108995;-76
2023/03/14 07:36:07;;;;;;;;;;;10.70;99.90;;;;;;7337619;19;109725;-79
2023/03/14 07:38:34;;;;;;;;;;;10.60;99.90;;;;;;7340356;19;109215;-75
2023/03/14 07:41:02;;;;;;;;;;;10.60;99.90;;;;;;7339274;19;109167;-78
2023/03/14 07:43:29;;;;;;;;;;;10.50;99.90;;;;;;7338305;19;110313;-74
2023/03/14 07:45:56;;;;;;;;;;;10.50;99.90;;;;;;7338708;19;108965;-73
2023/03/14 07:48:26;;;;;;;;;;;10.40;99.90;;;;;;7337349;19;108967;-73
2023/03/14 07:50:54;;;;;;;;;;;10.40;99.90;;;;;;7340411;19;110161;-73
2023/03/14 07:53:21;;;;;;;;;;;10.40;99.90;;;;;;7343240;19;109314;-73
2023/03/14 07:55:49;;;;;;;;;;;10.20;99.90;;;;;;7337970;19;112990;-73
2023/03/14 07:58:16;;;;;;;;;;;10.20;99.90;;;;;;7339917;19;108648;-73
2023/03/14 08:00:43;;;;;;;;;;;10.30;99.90;;;;;;7341942;19;110406;-73
2023/03/14 08:03:10;;;;;;;;;;;10.20;99.90;;;;;;7340083;19;109394;-73
2023/03/14 08:05:37;;;;;;;;;;;10.20;99.90;;;;;;7338847;19;108350;-73
2023/03/14 08:08:05;;;;;;;;;;;10.20;99.90;;;;;;7338062;19;108624;-74
2023/03/14 08:10:32;;;;;;;;;;;10.20;99.90;;;;;;7338061;19;109202;-72
2023/03/14 08:12:59;;;;;;;;;;;10.30;99.90;;;;;;7339479;19;109104;-73
2023/03/14 08:15:28;;;;;;;;;;;10.30;99.90;;;;;;7344353;19;109415;-73
2023/03/14 08:17:55;;;;;;;;;;;10.30;99.90;;;;;;7335790;19;110991;-73
2023/03/14 08:20:23;;;;;;;;;;;10.30;99.90;;;;;;7335868;19;109106;-73
2023/03/14 08:22:50;;;;;;;;;;;10.10;99.90;;;;;;7333872;19;109863;-73
2023/03/14 08:25:16;;;;;;;;;;;10.10;99.90;;;;;;7339475;19;108642;-72
2023/03/14 08:27:44;;;;;;;;;;;10.00;99.90;;;;;;7338048;19;109161;-73
2023/03/14 08:30:12;;;;;;;;;;;10.00;99.90;;;;;;7338487;19;110280;-73
2023/03/14 08:32:39;;;;;;;;;;;9.90;99.90;;;;;;7340801;19;108569;-73
2023/03/14 08:35:06;;;;;;;;;;;10.00;99.90;;;;;;7339399;19;109169;-72
2023/03/14 08:37:33;;;;;;;;;;;10.00;99.90;;;;;;7341151;19;109320;-73
2023/03/14 08:40:04;;;;;;;;;;;10.00;99.90;;;;;;7336264;19;111965;-72
2023/03/14 08:42:32;;;;;;;;;;;9.90;99.90;;;;;;7339636;19;110175;-73
2023/03/14 08:44:59;;;;;;;;;;;9.90;99.90;;;;;;7334724;19;110802;-73
2023/03/14 08:47:26;;;;;;;;;;;9.90;99.90;;;;;;7329920;19;112499;-73
2023/03/14 08:49:53;;;;;;;;;;;9.90;99.90;;;;;;7325181;19;110631;-72
2023/03/14 08:52:21;;;;;;;;;;;10.00;99.90;;;;;;7328499;19;109418;-72
2023/03/14 08:54:48;;;;;;;;;;;9.90;99.90;;;;;;7327281;19;110415;-73
2023/03/14 08:57:15;;;;;;;;;;;10.00;99.90;;;;;;7338897;19;109094;-73
2023/03/14 08:59:42;;;;;;;;;;;10.00;99.90;;;;;;7344056;19;108586;-72
2023/03/14 09:02:12;;;;;;;;;;;10.00;99.90;;;;;;7327484;19;113479;-74
2023/03/14 09:04:39;;;;;;;;;;;10.00;99.90;;;;;;7333165;19;109083;-73
2023/03/14 09:07:06;;;;;;;;;;;10.10;99.90;;;;;;7338032;19;109878;-73
2023/03/14 09:09:33;;;;;;;;;;;10.00;99.90;;;;;;7337186;19;109708;-74
2023/03/14 09:12:00;;;;;;;;;;;10.00;99.90;;;;;;7337108;19;108716;-72
2023/03/14 09:14:27;;;;;;;;;;;9.90;99.90;;;;;;7338538;19;111113;-72
2023/03/14 09:16:54;;;;;;;;;;;9.90;99.90;;;;;;7336734;19;109374;-72
2023/03/14 09:19:21;;;;;;;;;;;9.90;99.90;;;;;;7340586;19;109239;-72
2023/03/14 09:21:48;;;;;;;;;;;9.90;99.90;;;;;;7341154;19;109354;-72
2023/03/14 09:24:16;;;;;;;;;;;9.90;99.90;;;;;;7338862;19;108479;-72
2023/03/14 09:26:43;;;;;;;;;;;9.90;99.90;;;;;;7336775;19;109067;-72
2023/03/14 09:29:10;;;;;;;;;;;9.90;99.90;;;;;;7336564;19;109203;-72
2023/03/14 09:31:37;;;;;;;;;;;9.80;99.90;;;;;;7336432;19;108762;-72
2023/03/14 09:34:04;;;;;;;;;;;9.80;99.90;;;;;;7337321;19;109282;-71
2023/03/14 09:36:31;;;;;;;;;;;9.80;99.90;;;;;;7335457;19;112947;-71
2023/03/14 09:38:57;;;;;;;;;;;9.80;99.90;;;;;;7340181;19;108818;-71
2023/03/14 09:41:26;;;;;;;;;;;9.70;99.90;;;;;;7340301;19;111881;-72
2023/03/14 09:44:14;;;;;;;;;;;9.70;99.90;;;;;;7337948;19;109716;-71
2023/03/14 09:46:42;;;;;;;;;;;9.70;99.90;;;;;;7334101;19;109461;-71
2023/03/14 09:49:15;;;;;;;;;;;9.70;99.90;;;;;;7337186;19;112349;-71
2023/03/14 09:51:43;;;;;;;;;;;9.70;99.90;;;;;;7334692;19;108330;-71
2023/03/14 09:54:22;;;;;;;;;;;9.70;99.90;;;;;;7334948;19;109141;-72
2023/03/14 09:56:50;;;;;;;;;;;9.70;99.90;;;;;;7336194;19;109143;-71
2023/03/14 09:59:17;;;;;;;;;;;9.60;99.90;;;;;;7336417;19;108862;-72
2023/03/14 10:01:44;;;;;;;;;;;9.60;99.90;;;;;;7334271;19;109374;-72
2023/03/14 10:04:17;;;;;;;;;;;9.50;99.90;;;;;;7339353;19;110063;-71
2023/03/14 10:06:44;;;;;;;;;;;9.60;99.90;;;;;;7336884;19;109389;-71
2023/03/14 10:09:15;;;;;;;;;;;9.60;99.90;;;;;;7333291;19;110089;-72
2023/03/14 10:11:42;;;;;;;;;;;9.60;99.90;;;;;;7336301;19;112886;-71
2023/03/14 10:14:12;;;;;;;;;;;9.60;99.90;;;;;;7334037;19;109192;-71
2023/03/14 10:16:44;;;;;;;;;;;9.60;99.90;;;;;;7335950;19;110276;-71
2023/03/14 10:19:12;;;;;;;;;;;9.60;99.90;;;;;;7333545;19;108303;-71
2023/03/14 10:21:43;;;;;;;;;;;9.70;99.90;;;;;;7335434;19;108894;-71
2023/03/14 10:24:16;;;;;;;;;;;9.70;99.90;;;;;;7334613;19;110417;-71
2023/03/14 10:26:43;;;;;;;;;;;9.60;99.90;;;;;;7338111;19;110039;-71
2023/03/14 10:29:11;;;;;;;;;;;9.60;99.90;;;;;;7336791;19;110424;-71
2023/03/14 10:31:47;;;;;;;;;;;9.60;99.90;;;;;;7333085;19;108809;-72
2023/03/14 10:34:17;;;;;;;;;;;9.50;99.90;;;;;;7337186;19;109080;-71
2023/03/14 10:36:44;;;;;;;;;;;9.50;99.90;;;;;;7336393;19;110135;-71
2023/03/14 10:39:28;;;;;;;;;;;9.50;99.90;;;;;;7335398;19;108574;-72
2023/03/14 10:42:03;;;;;;;;;;;9.50;99.90;;;;;;7338102;19;109551;-72
2023/03/14 10:44:30;;;;;;;;;;;9.50;99.90;;;;;;7337275;19;110726;-71
2023/03/14 10:47:01;;;;;;;;;;;9.60;99.90;;;;;;7345640;19;108334;-71
2023/03/14 10:49:33;;;;;;;;;;;9.70;99.90;;;;;;7345779;19;109173;-73
2023/03/14 10:52:09;;;;;;;;;;;9.50;99.90;;;;;;7342675;19;109423;-73
2023/03/14 10:54:36;;;;;;;;;;;9.20;99.90;;;;;;7343720;19;109168;-73
2023/03/14 10:57:04;;;;;;;;;;;9.20;99.90;;;;;;7342558;19;110098;-77
2023/03/14 10:59:35;;;;;;;;;;;9.20;99.90;;;;;;7342304;19;108846;-74
2023/03/14 11:02:21;;;;;;;;;;;9.10;99.90;;;;;;7343804;19;108328;-74
2023/03/14 11:04:55;;;;;;;;;;;9.10;99.90;;;;;;7340550;19;110466;-73
2023/03/14 11:07:35;;;;;;;;;;;9.20;99.90;;;;;;7341533;19;109218;-72
2023/03/14 11:10:02;;;;;;;;;;;9.20;99.90;;;;;;7342190;19;110364;-72
2023/03/14 11:12:36;;;;;;;;;;;9.30;99.90;;;;;;7345570;19;110032;-72
2023/03/14 11:15:26;;;;;;;;;;;9.40;99.90;;;;;;7342242;19;108393;-72
2023/03/14 11:17:53;;;;;;;;;;;9.50;99.90;;;;;;7339499;19;110188;-71
2023/03/14 11:20:29;;;;;;;;;;;9.50;99.90;;;;;;7342189;19;108351;-72
2023/03/14 11:23:03;;;;;;;;;;;9.70;99.90;;;;;;7343354;19;110228;-71
2023/03/14 11:25:37;;;;;;;;;;;9.70;99.90;;;;;;7339416;19;109433;-72
2023/03/14 11:28:26;;;;;;;;;;;9.80;99.90;;;;;;7339338;19;109030;-72
2023/03/14 11:30:55;;;;;;;;;;;9.90;99.90;;;;;;7342014;19;109274;-72
2023/03/14 11:33:31;;;;;;;;;;;10.00;99.90;;;;;;7340606;19;111278;-71
2023/03/14 11:36:07;;;;;;;;;;;10.10;99.90;;;;;;7345823;19;109481;-72
2023/03/14 11:38:34;;;;;;;;;;;10.10;99.90;;;;;;7341064;19;109720;-71
2023/03/14 11:41:01;;;;;;;;;;;10.10;99.90;;;;;;7343327;19;109145;-71
2023/03/14 11:43:28;;;;;;;;;;;10.10;99.90;;;;;;7342691;19;109803;-71
2023/03/14 11:46:09;;;;;;;;;;;10.20;99.90;;;;;;7339505;19;110165;-71
2023/03/14 11:48:39;;;;;;;;;;;10.20;99.90;;;;;;7342084;19;108649;-78
2023/03/14 11:51:11;;;;;;;;;;;10.20;99.90;;;;;;7340704;19;109564;-78
2023/03/14 11:53:44;;;;;;;;;;;10.10;99.90;;;;;;7337108;19;109768;-66
2023/03/14 11:56:14;;;;;;;;;;;9.90;99.90;;;;;;7342927;19;108733;-80
2023/03/14 11:58:44;;;;;;;;;;;9.70;99.90;;;;;;7338569;19;109151;-70
2023/03/14 12:01:13;;;;;;;;;;;9.70;99.90;;;;;;7340314;19;108526;-71
2023/03/14 12:03:40;;;;;;;;;;;9.60;99.90;;;;;;7337781;19;109142;-71
2023/03/14 12:06:25;;;;;;;;;;;9.50;99.90;;;;;;7339762;19;109868;-70
2023/03/14 12:08:57;;;;;;;;;;;9.50;99.90;;;;;;7339787;19;108365;-70
2023/03/14 12:11:52;;;;;;;;;;;9.50;99.90;;;;;;7337959;19;109414;-70
2023/03/14 12:14:30;;;;;;;;;;;9.50;99.90;;;;;;7333437;19;110238;-70
2023/03/14 12:17:17;;;;;;;;;;;9.50;99.90;;;;;;7334973;19;113413;-70
2023/03/14 12:19:44;;;;;;;;;;;9.60;99.90;;;;;;7345010;19;110437;-70
2023/03/14 12:22:23;;;;;;;;;;;9.50;99.90;;;;;;7338917;19;108957;-71
2023/03/14 12:24:53;;;;;;;;;;;9.40;99.90;;;;;;7337693;19;110287;-70
2023/03/14 12:27:52;;;;;;;;;;;9.50;99.90;;;;;;7338322;19;110710;-70
2023/03/14 12:30:29;;;;;;;;;;;9.60;99.90;;;;;;7334605;19;109352;-70
2023/03/14 12:33:08;;;;;;;;;;;9.60;99.90;;;;;;7339695;19;109928;-70
2023/03/14 12:35:36;;;;;;;;;;;9.70;99.90;;;;;;7338603;19;110172;-70
2023/03/14 12:38:25;;;;;;;;;;;9.80;99.90;;;;;;7336793;19;108664;-70
2023/03/14 12:40:59;;;;;;;;;;;9.70;99.90;;;;;;7338475;19;109282;-70
2023/03/14 12:43:31;;;;;;;;;;;9.60;99.90;;;;;;7344122;19;109173;-70
2023/03/14 12:46:07;;;;;;;;;;;9.60;99.90;;;;;;7339858;19;108552;-70
2023/03/14 12:48:34;;;;;;;;;;;9.60;99.90;;;;;;7340269;19;109954;-70
2023/03/14 12:51:12;;;;;;;;;;;9.60;99.90;;;;;;7339591;19;110022;-70
2023/03/14 12:53:54;;;;;;;;;;;9.60;99.90;;;;;;7339004;19;108543;-70
2023/03/14 12:56:32;;;;;;;;;;;9.60;99.90;;;;;;7338041;19;110366;-70
2023/03/14 12:58:59;;;;;;;;;;;9.70;99.90;;;;;;7338110;19;108622;-70
2023/03/14 13:01:27;;;;;;;;;;;9.70;99.90;;;;;;7339829;19;108469;-70
2023/03/14 13:03:54;;;;;;;;;;;9.80;99.90;;;;;;7338595;19;110326;-70
2023/03/14 13:06:41;;;;;;;;;;;9.90;99.90;;;;;;7344858;19;108458;-70
2023/03/14 13:09:24;;;;;;;;;;;9.80;99.90;;;;;;7335074;19;110300;-70
2023/03/14 13:11:51;;;;;;;;;;;9.90;99.90;;;;;;7338434;19;108876;-70
2023/03/14 13:14:18;;;;;;;;;;;9.80;99.90;;;;;;7336613;19;108782;-70
2023/03/14 13:16:46;;;;;;;;;;;9.80;99.90;;;;;;7335667;19;110051;-70
2023/03/14 13:19:18;;;;;;;;;;;9.80;99.90;;;;;;7337186;19;108758;-69
2023/03/14 13:21:45;;;;;;;;;;;9.90;99.90;;;;;;7336616;19;110380;-70
2023/03/14 13:24:21;;;;;;;;;;;9.80;99.90;;;;;;7340092;19;109512;-70
2023/03/14 13:26:48;;;;;;;;;;;9.70;99.90;;;;;;7337077;19;108484;-70
2023/03/14 13:29:15;;;;;;;;;;;9.70;99.90;;;;;;7343581;19;108734;-70
2023/03/14 13:31:46;;;;;;;;;;;9.70;99.90;;;;;;7337236;19;108624;-70
2023/03/14 13:34:13;;;;;;;;;;;9.70;99.90;;;;;;7336546;19;109366;-70
2023/03/14 13:36:40;;;;;;;;;;;9.70;99.90;;;;;;7336893;19;109187;-70
2023/03/14 13:39:12;;;;;;;;;;;9.80;99.90;;;;;;7339592;19;109064;-70
2023/03/14 13:41:40;;;;;;;;;;;9.90;99.90;;;;;;7339061;19;108853;-70
2023/03/14 13:44:08;;;;;;;;;;;9.90;99.90;;;;;;7340535;19;110157;-70
2023/03/14 13:46:36;;;;;;;;;;;9.90;99.90;;;;;;7339552;19;109136;-70
2023/03/14 13:49:10;;;;;;;;;;;9.90;99.90;;;;;;7339757;19;108383;-70
2023/03/14 13:51:38;;;;;;;;;;;9.90;99.90;;;;;;7340847;19;109807;-70
2023/03/14 13:54:13;;;;;;;;;;;10.00;99.90;;;;;;7337142;19;109335;-70
2023/03/14 13:56:40;;;;;;;;;;;10.10;99.90;;;;;;7335865;19;109133;-69
2023/03/14 13:59:26;;;;;;;;;;;10.10;99.90;;;;;;7336255;19;109463;-70
2023/03/14 14:01:54;;;;;;;;;;;10.10;99.90;;;;;;7335964;19;109428;-70
2023/03/14 14:04:24;;;;;;;;;;;10.20;99.90;;;;;;7335602;19;109984;-69
2023/03/14 14:06:57;;;;;;;;;;;10.30;99.90;;;;;;7337736;19;108922;-69
2023/03/14 14:09:26;;;;;;;;;;;10.30;99.90;;;;;;7337264;19;108960;-69
2023/03/14 14:11:59;;;;;;;;;;;10.20;99.90;;;;;;7339625;19;110244;-69
2023/03/14 14:14:44;;;;;;;;;;;10.30;99.90;;;;;;7333703;19;108405;-69
2023/03/14 14:17:12;;;;;;;;;;;10.30;99.90;;;;;;7336465;19;109514;-69
2023/03/14 14:19:40;;;;;;;;;;;10.30;99.90;;;;;;7341433;19;108293;-69
2023/03/14 14:22:10;;;;;;;;;;;10.30;99.90;;;;;;7342271;19;108663;-69
2023/03/14 14:24:38;;;;;;;;;;;10.10;99.90;;;;;;7342484;19;109737;-69
2023/03/14 14:27:08;;;;;;;;;;;10.10;99.90;;;;;;7343724;19;112012;-68
2023/03/14 14:29:35;;;;;;;;;;;10.10;99.90;;;;;;7341889;19;110433;-70
2023/03/14 14:32:04;;;;;;;;;;;10.00;99.90;;;;;;7342692;19;110124;-69
2023/03/14 14:34:38;;;;;;;;;;;9.90;99.90;;;;;;7348767;19;108280;-69
2023/03/14 14:37:05;;;;;;;;;;;9.90;99.90;;;;;;7340745;19;109324;-68
2023/03/14 14:39:32;;;;;;;;;;;9.90;99.90;;;;;;7341124;19;109522;-69